sensor_id;sensor_type;location;lat;lon;timestamp;pressure;altitude;pressure_sealevel;temperature;humidity
22580;BME280;11456;47.030;15.396;2024-01-07T00:00:05;96181.84;;;6.54;100.00
22580;BME280;11456;47.030;15.396;2024-01-07T00:02:32;96164.16;;;6.53;100.00
22580;BME280;11456;47.030;15.396;2024-01-07T00:04:59;96176.19;;;6.57;100.00
22580;BME280;11456;47.030;15.396;2024-01-07T00:07:26;96173.94;;;7.10;100.00
22580;BME280;11456;47.030;15.396;2024-01-07T00:09:52;96165.72;;;6.96;100.00
22580;BME280;11456;47.030;15.396;2024-01-07T00:12:19;96159.97;;;6.66;100.00
22580;BME280;11456;47.030;15.396;2024-01-07T00:14:46;96149.75;;;6.54;100.00
22580;BME280;11456;47.030;15.396;2024-01-07T00:17:12;96155.13;;;6.62;100.00
22580;BME280;11456;47.030;15.396;2024-01-07T00:19:39;96156.13;;;6.61;100.00
22580;BME280;11456;47.030;15.396;2024-01-07T00:22:07;96161.84;;;6.74;100.00
22580;BME280;11456;47.030;15.396;2024-01-07T00:24:34;96156.97;;;6.61;100.00
22580;BME280;11456;47.030;15.396;2024-01-07T00:27:00;96144.13;;;6.65;100.00
22580;BME280;11456;47.030;15.396;2024-01-07T00:29:27;96151.78;;;6.60;100.00
22580;BME280;11456;47.030;15.396;2024-01-07T00:31:53;96150.47;;;6.80;100.00
22580;BME280;11456;47.030;15.396;2024-01-07T00:34:20;96148.47;;;6.82;100.00
22580;BME280;11456;47.030;15.396;2024-01-07T00:36:48;96141.75;;;6.62;100.00
22580;BME280;11456;47.030;15.396;2024-01-07T00:39:15;96145.16;;;6.96;100.00
22580;BME280;11456;47.030;15.396;2024-01-07T00:41:42;96151.81;;;7.00;100.00
22580;BME280;11456;47.030;15.396;2024-01-07T00:44:08;96141.78;;;7.27;100.00
22580;BME280;11456;47.030;15.396;2024-01-07T00:46:35;96142.09;;;7.23;100.00
22580;BME280;11456;47.030;15.396;2024-01-07T00:49:02;96144.09;;;6.73;100.00
22580;BME280;11456;47.030;15.396;2024-01-07T00:51:28;96148.31;;;6.75;100.00
22580;BME280;11456;47.030;15.396;2024-01-07T00:53:55;96145.28;;;6.87;100.00
22580;BME280;11456;47.030;15.396;2024-01-07T00:56:25;96147.81;;;7.04;100.00
22580;BME280;11456;47.030;15.396;2024-01-07T00:58:52;96152.34;;;7.04;100.00
22580;BME280;11456;47.030;15.396;2024-01-07T01:01:19;96147.97;;;6.78;100.00
22580;BME280;11456;47.030;15.396;2024-01-07T01:03:46;96144.75;;;6.51;100.00
22580;BME280;11456;47.030;15.396;2024-01-07T01:06:14;96147.16;;;6.94;100.00
22580;BME280;11456;47.030;15.396;2024-01-07T01:08:41;96139.28;;;7.09;100.00
22580;BME280;11456;47.030;15.396;2024-01-07T01:11:10;96142.28;;;7.06;100.00
22580;BME280;11456;47.030;15.396;2024-01-07T01:13:37;96149.16;;;6.84;100.00
22580;BME280;11456;47.030;15.396;2024-01-07T01:16:04;96146.13;;;6.87;100.00
22580;BME280;11456;47.030;15.396;2024-01-07T01:18:31;96143.31;;;6.89;100.00
22580;BME280;11456;47.030;15.396;2024-01-07T01:20:58;96141.09;;;7.33;100.00
22580;BME280;11456;47.030;15.396;2024-01-07T01:23:24;96156.47;;;6.74;100.00
22580;BME280;11456;47.030;15.396;2024-01-07T01:25:51;96143.47;;;6.71;100.00
22580;BME280;11456;47.030;15.396;2024-01-07T01:28:18;96144.44;;;6.70;100.00
22580;BME280;11456;47.030;15.396;2024-01-07T01:30:44;96139.78;;;6.96;100.00
22580;BME280;11456;47.030;15.396;2024-01-07T01:33:11;96144.13;;;7.05;100.00
22580;BME280;11456;47.030;15.396;2024-01-07T01:35:38;96132.41;;;6.98;100.00
22580;BME280;11456;47.030;15.396;2024-01-07T01:38:05;96136.44;;;6.94;100.00
22580;BME280;11456;47.030;15.396;2024-01-07T01:40:31;96139.44;;;6.99;100.00
22580;BME280;11456;47.030;15.396;2024-01-07T01:42:58;96130.06;;;7.19;100.00
22580;BME280;11456;47.030;15.396;2024-01-07T01:45:25;96121.19;;;7.11;100.00
22580;BME280;11456;47.030;15.396;2024-01-07T01:47:51;96129.75;;;7.06;100.00
22580;BME280;11456;47.030;15.396;2024-01-07T01:50:19;96127.72;;;7.24;100.00
22580;BME280;11456;47.030;15.396;2024-01-07T01:52:46;96129.06;;;7.04;100.00
22580;BME280;11456;47.030;15.396;2024-01-07T01:55:13;96130.59;;;6.82;100.00
22580;BME280;11456;47.030;15.396;2024-01-07T01:57:40;96122.06;;;6.87;100.00
22580;BME280;11456;47.030;15.396;2024-01-07T02:00:08;96124.22;;;7.16;100.00
22580;BME280;11456;47.030;15.396;2024-01-07T02:02:35;96120.03;;;7.30;100.00
22580;BME280;11456;47.030;15.396;2024-01-07T02:05:05;96108.97;;;7.24;100.00
22580;BME280;11456;47.030;15.396;2024-01-07T02:07:32;96126.06;;;7.15;100.00
22580;BME280;11456;47.030;15.396;2024-01-07T02:09:59;96120.19;;;7.20;100.00
22580;BME280;11456;47.030;15.396;2024-01-07T02:12:26;96121.03;;;7.20;100.00
22580;BME280;11456;47.030;15.396;2024-01-07T02:14:52;96121.53;;;7.24;100.00
22580;BME280;11456;47.030;15.396;2024-01-07T02:17:19;96116.84;;;7.18;100.00
22580;BME280;11456;47.030;15.396;2024-01-07T02:19:47;96115.69;;;7.12;100.00
22580;BME280;11456;47.030;15.396;2024-01-07T02:22:14;96118.38;;;7.29;100.00
22580;BME280;11456;47.030;15.396;2024-01-07T02:24:40;96115.84;;;7.35;100.00
22580;BME280;11456;47.030;15.396;2024-01-07T02:27:07;96119.88;;;7.15;100.00
22580;BME280;11456;47.030;15.396;2024-01-07T02:29:34;96118.47;;;7.43;100.00
22580;BME280;11456;47.030;15.396;2024-01-07T02:32:01;96115.97;;;7.50;100.00
22580;BME280;11456;47.030;15.396;2024-01-07T02:34:27;96107.28;;;7.32;100.00
22580;BME280;11456;47.030;15.396;2024-01-07T02:36:54;96119.88;;;6.99;100.00
22580;BME280;11456;47.030;15.396;2024-01-07T02:39:21;96108.28;;;7.31;100.00
22580;BME280;11456;47.030;15.396;2024-01-07T02:41:49;96108.50;;;7.29;100.00
22580;BME280;11456;47.030;15.396;2024-01-07T02:44:15;96109.28;;;7.46;100.00
22580;BME280;11456;47.030;15.396;2024-01-07T02:46:42;96103.66;;;7.16;100.00
22580;BME280;11456;47.030;15.396;2024-01-07T02:49:09;96112.81;;;7.38;100.00
22580;BME280;11456;47.030;15.396;2024-01-07T02:51:36;96113.53;;;7.16;100.00
22580;BME280;11456;47.030;15.396;2024-01-07T02:54:03;96109.34;;;7.13;100.00
22580;BME280;11456;47.030;15.396;2024-01-07T02:56:29;96111.88;;;6.91;100.00
22580;BME280;11456;47.030;15.396;2024-01-07T02:58:56;96106.34;;;7.08;100.00
22580;BME280;11456;47.030;15.396;2024-01-07T03:01:23;96112.00;;;7.05;100.00
22580;BME280;11456;47.030;15.396;2024-01-07T03:03:50;96106.13;;;7.18;100.00
22580;BME280;11456;47.030;15.396;2024-01-07T03:06:17;96115.19;;;7.01;100.00
22580;BME280;11456;47.030;15.396;2024-01-07T03:08:44;96115.03;;;7.10;100.00
22580;BME280;11456;47.030;15.396;2024-01-07T03:11:10;96109.66;;;7.35;100.00
22580;BME280;11456;47.030;15.396;2024-01-07T03:13:37;96108.97;;;7.24;100.00
22580;BME280;11456;47.030;15.396;2024-01-07T03:16:04;96110.00;;;7.07;100.00
22580;BME280;11456;47.030;15.396;2024-01-07T03:18:31;96115.69;;;7.12;100.00
22580;BME280;11456;47.030;15.396;2024-01-07T03:20:58;96111.66;;;7.24;100.00
22580;BME280;11456;47.030;15.396;2024-01-07T03:23:25;96117.38;;;7.30;100.00
22580;BME280;11456;47.030;15.396;2024-01-07T03:25:51;96122.19;;;7.18;100.00
22580;BME280;11456;47.030;15.396;2024-01-07T03:28:18;96117.69;;;7.18;100.00
22580;BME280;11456;47.030;15.396;2024-01-07T03:30:45;96120.38;;;7.35;100.00
22580;BME280;11456;47.030;15.396;2024-01-07T03:33:12;96119.19;;;7.13;100.00
22580;BME280;11456;47.030;15.396;2024-01-07T03:35:39;96119.88;;;7.23;100.00
22580;BME280;11456;47.030;15.396;2024-01-07T03:38:05;96121.72;;;7.14;100.00
22580;BME280;11456;47.030;15.396;2024-01-07T03:40:32;96123.38;;;7.23;100.00
22580;BME280;11456;47.030;15.396;2024-01-07T03:42:59;96129.75;;;7.22;100.00
22580;BME280;11456;47.030;15.396;2024-01-07T03:45:26;96136.47;;;7.10;100.00
22580;BME280;11456;47.030;15.396;2024-01-07T03:47:53;96136.09;;;7.30;100.00
22580;BME280;11456;47.030;15.396;2024-01-07T03:50:20;96131.06;;;7.27;100.00
22580;BME280;11456;47.030;15.396;2024-01-07T03:52:46;96124.69;;;7.52;100.00
22580;BME280;11456;47.030;15.396;2024-01-07T03:55:13;96127.03;;;7.39;100.00
22580;BME280;11456;47.030;15.396;2024-01-07T03:57:40;96135.06;;;7.39;100.00
22580;BME280;11456;47.030;15.396;2024-01-07T04:00:07;96143.09;;;7.31;100.00
22580;BME280;11456;47.030;15.396;2024-01-07T04:02:34;96143.47;;;6.95;100.00
22580;BME280;11456;47.030;15.396;2024-01-07T04:05:01;96135.09;;;6.82;100.00
22580;BME280;11456;47.030;15.396;2024-01-07T04:07:30;96138.78;;;6.89;100.00
22580;BME280;11456;47.030;15.396;2024-01-07T04:09:56;96144.28;;;6.79;100.00
22580;BME280;11456;47.030;15.396;2024-01-07T04:12:23;96154.84;;;6.89;100.00
22580;BME280;11456;47.030;15.396;2024-01-07T04:14:50;96147.16;;;6.94;100.00
22580;BME280;11456;47.030;15.396;2024-01-07T04:17:16;96150.16;;;6.91;100.00
22580;BME280;11456;47.030;15.396;2024-01-07T04:19:43;96157.19;;;6.84;100.00
22580;BME280;11456;47.030;15.396;2024-01-07T04:22:10;96154.16;;;6.79;100.00
22580;BME280;11456;47.030;15.396;2024-01-07T04:24:40;96153.81;;;6.82;100.00
22580;BME280;11456;47.030;15.396;2024-01-07T04:27:07;96163.81;;;6.56;100.00
22580;BME280;11456;47.030;15.396;2024-01-07T04:29:34;96162.78;;;6.49;100.00
22580;BME280;11456;47.030;15.396;2024-01-07T04:32:00;96165.13;;;6.43;100.00
22580;BME280;11456;47.030;15.396;2024-01-07T04:34:27;96172.53;;;6.74;100.00
22580;BME280;11456;47.030;15.396;2024-01-07T04:36:54;96178.72;;;6.58;100.00
22580;BME280;11456;47.030;15.396;2024-01-07T04:39:20;96170.19;;;6.63;100.00
22580;BME280;11456;47.030;15.396;2024-01-07T04:41:47;96176.00;;;6.50;100.00
22580;BME280;11456;47.030;15.396;2024-01-07T04:44:14;96188.00;;;6.38;100.00
22580;BME280;11456;47.030;15.396;2024-01-07T04:46:40;96177.53;;;6.61;100.00
22580;BME280;11456;47.030;15.396;2024-01-07T04:49:07;96187.97;;;6.30;100.00
22580;BME280;11456;47.030;15.396;2024-01-07T04:51:34;96188.94;;;6.87;100.00
22580;BME280;11456;47.030;15.396;2024-01-07T04:54:02;96181.50;;;6.49;100.00
22580;BME280;11456;47.030;15.396;2024-01-07T04:56:29;96197.72;;;6.47;100.00
22580;BME280;11456;47.030;15.396;2024-01-07T04:58:56;96200.03;;;6.42;100.00
22580;BME280;11456;47.030;15.396;2024-01-07T05:01:22;96183.13;;;6.25;100.00
22580;BME280;11456;47.030;15.396;2024-01-07T05:03:49;96191.47;;;6.30;100.00
22580;BME280;11456;47.030;15.396;2024-01-07T05:06:16;96189.78;;;6.71;100.00
22580;BME280;11456;47.030;15.396;2024-01-07T05:08:43;96196.56;;;6.50;100.00
22580;BME280;11456;47.030;15.396;2024-01-07T05:11:10;96201.88;;;6.33;100.00
22580;BME280;11456;47.030;15.396;2024-01-07T05:13:37;96202.91;;;6.07;100.00
22580;BME280;11456;47.030;15.396;2024-01-07T05:16:04;96196.84;;;6.30;100.00
22580;BME280;11456;47.030;15.396;2024-01-07T05:18:31;96197.66;;;6.31;100.00
22580;BME280;11456;47.030;15.396;2024-01-07T05:20:58;96200.84;;;6.34;100.00
22580;BME280;11456;47.030;15.396;2024-01-07T05:23:24;96204.41;;;6.01;100.00
22580;BME280;11456;47.030;15.396;2024-01-07T05:25:51;96206.50;;;6.23;100.00
22580;BME280;11456;47.030;15.396;2024-01-07T05:28:18;96198.81;;;6.28;100.00
22580;BME280;11456;47.030;15.396;2024-01-07T05:30:46;96208.16;;;6.24;100.00
22580;BME280;11456;47.030;15.396;2024-01-07T05:33:13;96211.34;;;6.20;100.00
22580;BME280;11456;47.030;15.396;2024-01-07T05:35:40;96215.09;;;6.09;100.00
22580;BME280;11456;47.030;15.396;2024-01-07T05:38:07;96215.09;;;6.01;100.00
22580;BME280;11456;47.030;15.396;2024-01-07T05:40:33;96209.81;;;6.17;100.00
22580;BME280;11456;47.030;15.396;2024-01-07T05:43:00;96213.91;;;6.03;100.00
22580;BME280;11456;47.030;15.396;2024-01-07T05:45:27;96215.44;;;6.06;100.00
22580;BME280;11456;47.030;15.396;2024-01-07T05:47:53;96215.50;;;6.22;100.00
22580;BME280;11456;47.030;15.396;2024-01-07T05:50:20;96217.97;;;6.08;100.00
22580;BME280;11456;47.030;15.396;2024-01-07T05:52:47;96221.84;;;5.87;100.00
22580;BME280;11456;47.030;15.396;2024-01-07T05:55:14;96217.56;;;6.36;100.00
22580;BME280;11456;47.030;15.396;2024-01-07T05:57:43;96218.41;;;5.95;100.00
22580;BME280;11456;47.030;15.396;2024-01-07T06:00:10;96218.78;;;6.08;100.00
22580;BME280;11456;47.030;15.396;2024-01-07T06:02:41;96228.47;;;6.09;100.00
22580;BME280;11456;47.030;15.396;2024-01-07T06:05:08;96221.03;;;6.29;100.00
22580;BME280;11456;47.030;15.396;2024-01-07T06:07:35;96226.34;;;6.13;100.00
22580;BME280;11456;47.030;15.396;2024-01-07T06:10:02;96227.16;;;6.13;100.00
22580;BME280;11456;47.030;15.396;2024-01-07T06:12:29;96234.91;;;5.73;100.00
22580;BME280;11456;47.030;15.396;2024-01-07T06:14:55;96232.78;;;6.02;100.00
22580;BME280;11456;47.030;15.396;2024-01-07T06:17:22;96229.72;;;5.89;100.00
22580;BME280;11456;47.030;15.396;2024-01-07T06:19:50;96234.50;;;5.85;100.00
22580;BME280;11456;47.030;15.396;2024-01-07T06:22:17;96240.34;;;6.15;100.00
22580;BME280;11456;47.030;15.396;2024-01-07T06:24:43;96245.59;;;6.24;100.00
22580;BME280;11456;47.030;15.396;2024-01-07T06:27:10;96242.22;;;6.22;100.00
22580;BME280;11456;47.030;15.396;2024-01-07T06:29:37;96240.47;;;6.05;100.00
22580;BME280;11456;47.030;15.396;2024-01-07T06:32:04;96247.59;;;5.96;100.00
22580;BME280;11456;47.030;15.396;2024-01-07T06:34:30;96250.66;;;5.84;100.00
22580;BME280;11456;47.030;15.396;2024-01-07T06:36:58;96247.50;;;5.80;100.00
22580;BME280;11456;47.030;15.396;2024-01-07T06:39:25;96248.22;;;6.16;100.00
22580;BME280;11456;47.030;15.396;2024-01-07T06:41:54;96251.19;;;6.05;100.00
22580;BME280;11456;47.030;15.396;2024-01-07T06:44:21;96253.66;;;5.81;100.00
22580;BME280;11456;47.030;15.396;2024-01-07T06:46:48;96249.16;;;5.81;100.00
22580;BME280;11456;47.030;15.396;2024-01-07T06:49:14;96258.09;;;5.90;100.00
22580;BME280;11456;47.030;15.396;2024-01-07T06:51:41;96257.16;;;5.99;100.00
22580;BME280;11456;47.030;15.396;2024-01-07T06:54:08;96257.69;;;5.85;100.00
22580;BME280;11456;47.030;15.396;2024-01-07T06:56:40;96253.34;;;5.84;100.00
22580;BME280;11456;47.030;15.396;2024-01-07T06:59:06;96257.25;;;5.89;100.00
22580;BME280;11456;47.030;15.396;2024-01-07T07:01:33;96261.97;;;5.95;100.00
22580;BME280;11456;47.030;15.396;2024-01-07T07:04:00;96253.50;;;6.00;100.00
22580;BME280;11456;47.030;15.396;2024-01-07T07:06:27;96264.13;;;5.92;100.00
22580;BME280;11456;47.030;15.396;2024-01-07T07:08:54;96258.91;;;6.16;100.00
22580;BME280;11456;47.030;15.396;2024-01-07T07:11:20;96269.00;;;5.79;100.00
22580;BME280;11456;47.030;15.396;2024-01-07T07:13:47;96268.47;;;5.93;100.00
22580;BME280;11456;47.030;15.396;2024-01-07T07:16:14;96261.16;;;5.95;100.00
22580;BME280;11456;47.030;15.396;2024-01-07T07:18:40;96266.72;;;6.10;100.00
22580;BME280;11456;47.030;15.396;2024-01-07T07:21:07;96260.03;;;6.06;100.00
22580;BME280;11456;47.030;15.396;2024-01-07T07:23:34;96272.00;;;5.76;100.00
22580;BME280;11456;47.030;15.396;2024-01-07T07:26:01;96272.94;;;5.67;100.00
22580;BME280;11456;47.030;15.396;2024-01-07T07:28:28;96271.69;;;5.79;100.00
22580;BME280;11456;47.030;15.396;2024-01-07T07:30:54;96277.34;;;5.76;100.00
22580;BME280;11456;47.030;15.396;2024-01-07T07:33:21;96270.16;;;5.94;100.00
22580;BME280;11456;47.030;15.396;2024-01-07T07:35:48;96279.66;;;5.96;100.00
22580;BME280;11456;47.030;15.396;2024-01-07T07:38:15;96270.78;;;6.14;100.00
22580;BME280;11456;47.030;15.396;2024-01-07T07:40:42;96272.91;;;6.10;100.00
22580;BME280;11456;47.030;15.396;2024-01-07T07:43:08;96275.56;;;5.84;100.00
22580;BME280;11456;47.030;15.396;2024-01-07T07:45:35;96293.25;;;5.85;100.00
22580;BME280;11456;47.030;15.396;2024-01-07T07:48:02;96291.44;;;5.86;100.00
22580;BME280;11456;47.030;15.396;2024-01-07T07:50:29;96292.75;;;5.82;100.00
22580;BME280;11456;47.030;15.396;2024-01-07T07:52:56;96290.47;;;6.13;100.00
22580;BME280;11456;47.030;15.396;2024-01-07T07:55:23;96295.03;;;5.94;100.00
22580;BME280;11456;47.030;15.396;2024-01-07T07:57:50;96299.34;;;6.13;100.00
22580;BME280;11456;47.030;15.396;2024-01-07T08:00:18;96308.91;;;5.98;100.00
22580;BME280;11456;47.030;15.396;2024-01-07T08:02:45;96298.34;;;6.14;100.00
22580;BME280;11456;47.030;15.396;2024-01-07T08:05:12;96303.28;;;6.09;100.00
22580;BME280;11456;47.030;15.396;2024-01-07T08:07:39;96301.78;;;6.32;100.00
22580;BME280;11456;47.030;15.396;2024-01-07T08:10:06;96298.94;;;6.08;100.00
22580;BME280;11456;47.030;15.396;2024-01-07T08:12:35;96315.94;;;5.99;100.00
22580;BME280;11456;47.030;15.396;2024-01-07T08:15:01;96312.13;;;5.84;100.00
22580;BME280;11456;47.030;15.396;2024-01-07T08:17:29;96314.25;;;5.98;100.00
22580;BME280;11456;47.030;15.396;2024-01-07T08:19:55;96312.22;;;5.74;100.00
22580;BME280;11456;47.030;15.396;2024-01-07T08:22:22;96316.63;;;6.01;100.00
22580;BME280;11456;47.030;15.396;2024-01-07T08:24:49;96322.84;;;6.10;100.00
22580;BME280;11456;47.030;15.396;2024-01-07T08:27:17;96315.09;;;6.24;100.00
22580;BME280;11456;47.030;15.396;2024-01-07T08:29:43;96320.53;;;6.15;100.00
22580;BME280;11456;47.030;15.396;2024-01-07T08:32:10;96320.44;;;6.24;100.00
22580;BME280;11456;47.030;15.396;2024-01-07T08:34:39;96323.31;;;6.05;100.00
22580;BME280;11456;47.030;15.396;2024-01-07T08:37:09;96313.97;;;6.01;100.00
22580;BME280;11456;47.030;15.396;2024-01-07T08:39:36;96326.72;;;5.89;100.00
22580;BME280;11456;47.030;15.396;2024-01-07T08:42:04;96334.09;;;6.21;100.00
22580;BME280;11456;47.030;15.396;2024-01-07T08:44:30;96331.22;;;6.15;100.00
22580;BME280;11456;47.030;15.396;2024-01-07T08:47:00;96335.75;;;6.14;100.00
22580;BME280;11456;47.030;15.396;2024-01-07T08:49:30;96336.53;;;6.32;100.00
22580;BME280;11456;47.030;15.396;2024-01-07T08:52:00;96344.22;;;6.35;100.00
22580;BME280;11456;47.030;15.396;2024-01-07T08:54:27;96347.69;;;6.02;100.00
22580;BME280;11456;47.030;15.396;2024-01-07T08:56:53;96354.78;;;6.11;100.00
22580;BME280;11456;47.030;15.396;2024-01-07T08:59:20;96350.75;;;6.07;100.00
22580;BME280;11456;47.030;15.396;2024-01-07T09:01:47;96349.97;;;5.97;100.00
22580;BME280;11456;47.030;15.396;2024-01-07T09:04:14;96342.66;;;5.99;100.00
22580;BME280;11456;47.030;15.396;2024-01-07T09:06:44;96350.53;;;6.26;100.00
22580;BME280;11456;47.030;15.396;2024-01-07T09:09:11;96354.34;;;6.24;100.00
22580;BME280;11456;47.030;15.396;2024-01-07T09:11:38;96351.81;;;6.48;100.00
22580;BME280;11456;47.030;15.396;2024-01-07T09:14:05;96355.66;;;6.46;100.00
22580;BME280;11456;47.030;15.396;2024-01-07T09:16:31;96366.81;;;6.15;100.00
22580;BME280;11456;47.030;15.396;2024-01-07T09:18:58;96365.94;;;6.07;100.00
22580;BME280;11456;47.030;15.396;2024-01-07T09:21:25;96365.72;;;6.00;100.00
22580;BME280;11456;47.030;15.396;2024-01-07T09:23:52;96360.66;;;5.97;100.00
22580;BME280;11456;47.030;15.396;2024-01-07T09:26:19;96370.38;;;6.24;100.00
22580;BME280;11456;47.030;15.396;2024-01-07T09:28:46;96365.19;;;6.22;100.00
22580;BME280;11456;47.030;15.396;2024-01-07T09:31:13;96365.53;;;6.19;100.00
22580;BME280;11456;47.030;15.396;2024-01-07T09:33:40;96363.00;;;6.43;100.00
22580;BME280;11456;47.030;15.396;2024-01-07T09:36:07;96368.34;;;6.43;100.00
22580;BME280;11456;47.030;15.396;2024-01-07T09:38:51;96375.84;;;6.40;100.00
22580;BME280;11456;47.030;15.396;2024-01-07T09:41:20;96369.34;;;6.42;100.00
22580;BME280;11456;47.030;15.396;2024-01-07T09:43:47;96367.00;;;6.39;100.00
22580;BME280;11456;47.030;15.396;2024-01-07T09:46:13;96380.41;;;6.48;100.00
22580;BME280;11456;47.030;15.396;2024-01-07T09:48:40;96367.28;;;6.62;100.00
22580;BME280;11456;47.030;15.396;2024-01-07T09:51:08;96365.09;;;6.58;100.00
22580;BME280;11456;47.030;15.396;2024-01-07T09:53:38;96372.75;;;6.53;100.00
22580;BME280;11456;47.030;15.396;2024-01-07T09:56:12;96367.72;;;6.50;100.00
22580;BME280;11456;47.030;15.396;2024-01-07T09:58:45;96363.81;;;6.70;100.00
22580;BME280;11456;47.030;15.396;2024-01-07T10:01:12;96368.41;;;6.52;100.00
22580;BME280;11456;47.030;15.396;2024-01-07T10:03:39;96360.78;;;6.65;100.00
22580;BME280;11456;47.030;15.396;2024-01-07T10:06:06;96363.28;;;6.66;100.00
22580;BME280;11456;47.030;15.396;2024-01-07T10:08:33;96361.50;;;6.75;100.00
22580;BME280;11456;47.030;15.396;2024-01-07T10:10:59;96364.25;;;6.57;100.00
22580;BME280;11456;47.030;15.396;2024-01-07T10:13:28;96364.75;;;6.61;100.00
22580;BME280;11456;47.030;15.396;2024-01-07T10:15:55;96359.19;;;6.46;100.00
22580;BME280;11456;47.030;15.396;2024-01-07T10:18:22;96358.13;;;6.73;100.00
22580;BME280;11456;47.030;15.396;2024-01-07T10:20:49;96359.06;;;6.90;100.00
22580;BME280;11456;47.030;15.396;2024-01-07T10:23:19;96359.69;;;6.83;100.00
22580;BME280;11456;47.030;15.396;2024-01-07T10:25:46;96356.53;;;6.88;100.00
22580;BME280;11456;47.030;15.396;2024-01-07T10:28:13;96368.56;;;6.92;100.00
22580;BME280;11456;47.030;15.396;2024-01-07T10:30:52;96363.75;;;6.62;100.00
22580;BME280;11456;47.030;15.396;2024-01-07T10:33:19;96367.72;;;6.50;100.00
22580;BME280;11456;47.030;15.396;2024-01-07T10:35:57;96372.28;;;6.31;100.00
22580;BME280;11456;47.030;15.396;2024-01-07T10:38:27;96361.25;;;6.60;100.00
22580;BME280;11456;47.030;15.396;2024-01-07T10:40:55;96365.81;;;6.68;100.00
22580;BME280;11456;47.030;15.396;2024-01-07T10:43:26;96361.63;;;7.07;100.00
22580;BME280;11456;47.030;15.396;2024-01-07T10:45:55;96362.66;;;7.14;100.00
22580;BME280;11456;47.030;15.396;2024-01-07T10:48:26;96358.91;;;6.91;100.00
22580;BME280;11456;47.030;15.396;2024-01-07T10:50:59;96351.44;;;6.69;100.00
22580;BME280;11456;47.030;15.396;2024-01-07T10:53:28;96355.13;;;7.10;100.00
22580;BME280;11456;47.030;15.396;2024-01-07T10:56:03;96357.56;;;6.95;100.00
22580;BME280;11456;47.030;15.396;2024-01-07T10:58:32;96356.56;;;7.04;100.00
22580;BME280;11456;47.030;15.396;2024-01-07T11:00:59;96356.56;;;7.04;100.00
22580;BME280;11456;47.030;15.396;2024-01-07T11:06:39;96358.03;;;7.41;97.63
22580;BME280;11456;47.030;15.396;2024-01-07T11:09:20;96356.91;;;7.01;95.89
22580;BME280;11456;47.030;15.396;2024-01-07T11:11:50;96350.28;;;7.21;98.75
22580;BME280;11456;47.030;15.396;2024-01-07T11:14:37;96350.47;;;7.36;98.26
22580;BME280;11456;47.030;15.396;2024-01-07T11:17:06;96345.78;;;7.30;97.62
22580;BME280;11456;47.030;15.396;2024-01-07T11:19:35;96347.94;;;7.18;96.25
22580;BME280;11456;47.030;15.396;2024-01-07T11:24:49;96354.66;;;7.31;99.08
22580;BME280;11456;47.030;15.396;2024-01-07T11:27:16;96346.66;;;7.47;99.86
22580;BME280;11456;47.030;15.396;2024-01-07T11:29:43;96352.00;;;7.39;94.21
22580;BME280;11456;47.030;15.396;2024-01-07T11:32:12;96351.97;;;7.31;96.95
22580;BME280;11456;47.030;15.396;2024-01-07T11:34:42;96348.63;;;7.37;95.73
22580;BME280;11456;47.030;15.396;2024-01-07T11:37:20;96356.66;;;7.29;97.04
22580;BME280;11456;47.030;15.396;2024-01-07T11:39:50;96346.31;;;7.42;95.30
22580;BME280;11456;47.030;15.396;2024-01-07T11:42:17;96339.31;;;7.49;94.54
22580;BME280;11456;47.030;15.396;2024-01-07T11:44:54;96343.31;;;7.69;90.32
22580;BME280;11456;47.030;15.396;2024-01-07T11:47:23;96341.66;;;8.25;84.35
22580;BME280;11456;47.030;15.396;2024-01-07T11:49:50;96342.34;;;7.86;88.20
22580;BME280;11456;47.030;15.396;2024-01-07T11:52:18;96347.34;;;7.81;84.35
22580;BME280;11456;47.030;15.396;2024-01-07T11:54:47;96346.19;;;7.76;84.04
22580;BME280;11456;47.030;15.396;2024-01-07T11:57:14;96341.19;;;7.81;85.83
22580;BME280;11456;47.030;15.396;2024-01-07T11:59:40;96340.66;;;7.77;82.87
22580;BME280;11456;47.030;15.396;2024-01-07T12:02:11;96340.13;;;7.49;82.76
22580;BME280;11456;47.030;15.396;2024-01-07T12:04:37;96352.41;;;7.68;83.79
22580;BME280;11456;47.030;15.396;2024-01-07T12:07:04;96342.00;;;7.73;85.17
22580;BME280;11456;47.030;15.396;2024-01-07T12:09:31;96348.00;;;7.51;81.06
22580;BME280;11456;47.030;15.396;2024-01-07T12:11:59;96341.66;;;7.60;82.06
22580;BME280;11456;47.030;15.396;2024-01-07T12:14:27;96337.63;;;7.88;80.56
22580;BME280;11456;47.030;15.396;2024-01-07T12:16:55;96342.69;;;7.99;79.05
22580;BME280;11456;47.030;15.396;2024-01-07T12:19:22;96344.84;;;7.88;79.52
22580;BME280;11456;47.030;15.396;2024-01-07T12:22:03;96341.66;;;7.60;76.72
22580;BME280;11456;47.030;15.396;2024-01-07T12:24:30;96337.81;;;7.79;82.89
22580;BME280;11456;47.030;15.396;2024-01-07T12:27:03;96331.28;;;7.89;82.72
22580;BME280;11456;47.030;15.396;2024-01-07T12:29:30;96343.34;;;7.77;80.94
22580;BME280;11456;47.030;15.396;2024-01-07T12:31:57;96334.97;;;8.04;80.38
22580;BME280;11456;47.030;15.396;2024-01-07T12:34:24;96335.63;;;7.98;79.18
22580;BME280;11456;47.030;15.396;2024-01-07T12:36:51;96339.66;;;7.86;77.33
22580;BME280;11456;47.030;15.396;2024-01-07T12:39:18;96340.84;;;8.00;72.42
22580;BME280;11456;47.030;15.396;2024-01-07T12:41:45;96336.97;;;8.19;73.07
22580;BME280;11456;47.030;15.396;2024-01-07T12:44:13;96342.66;;;8.16;74.74
22580;BME280;11456;47.030;15.396;2024-01-07T12:46:40;96344.00;;;8.36;75.57
22580;BME280;11456;47.030;15.396;2024-01-07T12:49:07;96330.94;;;8.09;74.90
22580;BME280;11456;47.030;15.396;2024-01-07T12:51:33;96338.81;;;8.18;71.28
22580;BME280;11456;47.030;15.396;2024-01-07T12:54:00;96345.34;;;8.24;70.75
22580;BME280;11456;47.030;15.396;2024-01-07T12:56:30;96344.31;;;8.00;74.13